Time;durP1;ratioP1;P1;durP2;ratioP2;P2;SDS_P1;SDS_P2;PMS_P1;PMS_P2;Temp;Humidity;BMP_temperature;BMP_pressure;BME280_temperature;BME280_humidity;BME280_pressure;Samples;Min_cycle;Max_cycle;Signal;HPM_P1;HPM_P2
2021/12/19 00:02:03;;;;;;;39.70;25.20;;;2.40;99.90;;;3.31;94.56;99598.00;5199892;28;20649;-61
2021/12/19 00:04:44;;;;;;;40.77;23.93;;;2.50;99.90;;;3.41;94.10;99588.22;5189108;28;20641;-60
2021/12/19 00:10:09;;;;;;;35.90;24.13;;;2.40;99.90;;;3.36;94.56;99600.31;5194400;28;20217;-59
2021/12/19 00:12:42;;;;;;;38.70;24.43;;;2.50;99.90;;;3.39;93.85;99604.81;5211888;28;20193;-63
2021/12/19 00:15:15;;;;;;;41.43;24.90;;;2.50;99.90;;;3.43;93.88;99609.47;5215726;28;20645;-58
2021/12/19 00:17:49;;;;;;;40.17;25.47;;;2.50;99.90;;;3.48;93.41;99608.38;5196717;28;20208;-62
2021/12/19 00:20:22;;;;;;;34.83;22.37;;;2.40;99.90;;;3.46;92.97;99599.72;5202073;28;20231;-62
2021/12/19 00:23:16;;;;;;;32.00;21.77;;;2.40;99.90;;;3.35;93.52;99597.63;5208963;28;20198;-60
2021/12/19 00:25:51;;;;;;;33.57;21.93;;;2.40;99.90;;;3.41;93.57;99588.22;5199785;28;20790;-62
2021/12/19 00:28:25;;;;;;;36.10;22.40;;;2.40;99.90;;;3.51;93.03;99580.91;5207541;28;20203;-61
2021/12/19 00:30:58;;;;;;;33.80;22.23;;;2.40;99.90;;;3.49;93.15;99574.81;5207541;28;20230;-62
2021/12/19 00:33:31;;;;;;;36.67;22.13;;;2.50;99.90;;;3.44;93.63;99565.81;5204291;28;20548;-61
2021/12/19 00:36:06;;;;;;;35.97;23.03;;;2.50;99.90;;;3.42;94.08;99569.78;5202576;28;20205;-60
2021/12/19 00:38:39;;;;;;;42.10;24.43;;;2.50;99.90;;;3.36;93.99;99553.94;5209037;28;20206;-59
2021/12/19 00:41:13;;;;;;;41.80;23.97;;;2.50;99.90;;;3.41;93.34;99551.94;5195644;28;20241;-61
2021/12/19 00:43:53;;;;;;;37.83;23.43;;;2.40;99.90;;;3.43;93.36;99548.81;5209953;28;20193;-63
2021/12/19 00:46:27;;;;;;;38.77;23.30;;;2.40;99.90;;;3.49;93.02;99557.13;5211842;28;20251;-61
2021/12/19 00:49:00;;;;;;;39.60;23.67;;;2.40;99.90;;;3.39;93.08;99569.44;5193815;28;20300;-61
2021/12/19 00:51:33;;;;;;;36.97;22.23;;;2.30;99.90;;;3.42;92.87;99561.31;5205913;28;20220;-61
2021/12/19 00:54:09;;;;;;;34.13;23.10;;;2.30;99.90;;;3.34;93.06;99562.97;5204607;28;20252;-59
2021/12/19 00:56:46;;;;;;;38.50;24.43;;;2.30;99.90;;;3.37;93.54;99561.69;5205607;28;20194;-61
2021/12/19 00:59:19;;;;;;;42.07;24.27;;;2.30;99.90;;;3.39;93.42;99551.75;5207391;28;20214;-59
2021/12/19 01:01:52;;;;;;;39.23;24.70;;;2.40;99.90;;;3.34;94.13;99550.34;5202003;28;20202;-60
2021/12/19 01:04:25;;;;;;;39.83;25.00;;;2.40;99.90;;;3.35;94.10;99549.63;5195432;28;20203;-60
2021/12/19 01:07:01;;;;;;;42.80;25.33;;;2.40;99.90;;;3.41;93.99;99547.78;5201697;28;20244;-62
2021/12/19 01:09:34;;;;;;;42.03;25.67;;;2.40;99.90;;;3.41;93.85;99537.66;5199261;28;20247;-60
2021/12/19 01:12:10;;;;;;;44.73;26.27;;;2.40;99.90;;;3.37;94.03;99543.97;5207181;28;20196;-62
2021/12/19 01:14:43;;;;;;;41.53;25.87;;;2.40;99.90;;;3.36;93.86;99542.19;5214039;28;20218;-62
2021/12/19 01:17:17;;;;;;;44.70;27.33;;;2.30;99.90;;;3.34;93.92;99528.47;5205773;28;20558;-60
2021/12/19 01:19:50;;;;;;;42.63;25.40;;;2.30;99.90;;;3.43;93.11;99531.13;5209852;28;20705;-61
2021/12/19 01:22:23;;;;;;;45.20;26.40;;;2.20;99.90;;;3.49;92.38;99526.78;5207255;28;20493;-60
2021/12/19 01:24:56;;;;;;;48.03;26.87;;;2.30;99.90;;;3.41;92.83;99530.09;5221922;28;20656;-62
2021/12/19 01:27:30;;;;;;;47.97;26.60;;;2.20;99.90;;;3.46;93.23;99526.41;5201101;28;20228;-61
2021/12/19 01:30:06;;;;;;;42.47;26.00;;;2.30;99.90;;;3.39;92.76;99539.13;5206427;28;20221;-59
2021/12/19 01:32:41;;;;;;;48.20;25.90;;;2.30;99.90;;;3.32;93.27;99536.63;5200801;28;20196;-60
2021/12/19 01:35:17;;;;;;;45.07;26.47;;;2.40;99.90;;;3.31;93.98;99545.84;5204318;28;20238;-62
2021/12/19 01:37:51;;;;;;;45.90;27.10;;;2.40;99.90;;;3.30;93.90;99541.53;5196109;28;20204;-60
2021/12/19 01:40:24;;;;;;;48.43;28.47;;;2.30;99.90;;;3.26;93.28;99551.09;5205110;28;20209;-62
2021/12/19 01:42:59;;;;;;;45.23;26.00;;;2.30;99.90;;;3.09;93.90;99552.63;5214824;28;20229;-62
2021/12/19 01:45:36;;;;;;;49.63;26.90;;;2.30;99.90;;;3.20;94.26;99550.41;5205602;28;20215;-60
2021/12/19 01:48:13;;;;;;;46.97;27.90;;;2.20;99.90;;;3.32;93.76;99550.19;5204235;28;20301;-62
2021/12/19 01:50:47;;;;;;;47.30;26.80;;;2.30;99.90;;;3.36;93.08;99543.84;5199299;28;20669;-60
2021/12/19 01:53:21;;;;;;;45.90;28.57;;;2.20;99.90;;;3.35;92.79;99537.00;5198198;28;20203;-62
2021/12/19 01:55:54;;;;;;;45.50;26.67;;;2.20;99.90;;;3.34;92.97;99540.22;5205422;28;20652;-61
2021/12/19 01:58:28;;;;;;;49.20;27.00;;;2.20;99.90;;;3.38;93.15;99537.34;5203125;28;20202;-62
2021/12/19 02:01:01;;;;;;;46.87;27.20;;;2.30;99.90;;;3.41;92.92;99532.63;5200131;28;20222;-60
2021/12/19 02:03:36;;;;;;;53.90;29.10;;;2.30;99.90;;;3.42;92.65;99534.41;5194430;28;20297;-63
2021/12/19 02:06:09;;;;;;;46.07;26.90;;;2.20;99.90;;;3.36;93.21;99537.16;5206151;28;20223;-61
2021/12/19 02:08:42;;;;;;;47.90;27.77;;;2.30;99.90;;;3.31;93.17;99534.81;5203669;28;20200;-60
2021/12/19 02:11:15;;;;;;;48.23;27.43;;;2.30;99.90;;;3.30;93.58;99536.47;5206551;28;20215;-62
2021/12/19 02:13:50;;;;;;;49.93;28.70;;;2.30;99.90;;;3.31;93.58;99544.94;5206208;28;20243;-59
2021/12/19 02:16:23;;;;;;;49.30;28.20;;;2.30;99.90;;;3.35;93.61;99535.34;5210104;28;20190;-62
2021/12/19 02:18:57;;;;;;;51.47;29.13;;;2.30;99.90;;;3.39;93.19;99536.59;5193752;28;20205;-62
2021/12/19 02:21:32;;;;;;;46.57;27.70;;;2.20;99.90;;;3.36;93.24;99528.66;5201310;28;20213;-62
2021/12/19 02:24:09;;;;;;;49.77;28.13;;;2.30;99.90;;;3.32;93.11;99513.88;5190392;28;20574;-60
2021/12/19 02:26:43;;;;;;;47.77;27.93;;;2.30;99.90;;;3.38;92.71;99507.91;5196443;28;20678;-61
2021/12/19 02:29:17;;;;;;;51.17;28.30;;;2.20;99.90;;;3.30;93.04;99500.19;5202602;28;20232;-62
2021/12/19 02:31:50;;;;;;;47.07;27.00;;;2.20;99.90;;;3.32;93.35;99511.34;5205485;28;20204;-62
2021/12/19 02:34:28;;;;;;;50.60;27.80;;;2.20;99.90;;;3.28;93.44;99512.63;5196905;28;20228;-60
2021/12/19 02:37:09;;;;;;;41.83;25.27;;;2.20;99.90;;;3.31;93.48;99520.56;5193435;28;20197;-59
2021/12/19 02:40:05;;;;;;;51.90;28.17;;;2.20;99.90;;;3.30;93.56;99525.47;5186363;28;20220;-60
2021/12/19 02:48:28;;;;;;;48.37;27.27;;;2.20;99.90;;;3.34;93.53;99500.69;5172115;28;20213;-79
2021/12/19 02:51:02;;;;;;;47.87;27.20;;;2.20;99.90;;;3.25;93.77;99503.81;5222404;28;20203;-79
2021/12/19 02:53:39;;;;;;;43.93;24.80;;;2.20;99.90;;;3.26;94.27;99505.63;5204531;28;20225;-79
2021/12/19 02:56:13;;;;;;;47.07;26.83;;;2.20;99.90;;;3.29;93.39;99498.38;5215511;28;20572;-78
2021/12/19 02:58:47;;;;;;;44.30;25.80;;;2.20;99.90;;;3.33;93.41;99492.94;5210398;28;20202;-78
2021/12/19 03:01:21;;;;;;;45.03;25.80;;;2.20;99.90;;;3.25;94.12;99498.78;5211681;28;20208;-78
2021/12/19 03:03:54;;;;;;;51.03;27.10;;;2.20;99.90;;;3.30;93.40;99488.44;5206853;28;20232;-79
2021/12/19 03:06:28;;;;;;;50.37;28.13;;;2.10;99.90;;;3.24;93.78;99481.84;5215693;28;20265;-79
2021/12/19 03:09:07;;;;;;;46.43;26.53;;;2.20;99.90;;;3.34;93.85;99494.75;5208804;28;20201;-78
2021/12/19 03:12:03;;;;;;;47.13;26.67;;;2.10;99.90;;;3.25;93.40;99486.16;5199397;28;20574;-78
2021/12/19 03:20:24;;;;;;;49.93;25.83;;;2.10;99.90;;;3.04;95.02;99484.66;5210004;28;20566;-79
2021/12/19 03:22:58;;;;;;;47.27;25.93;;;2.10;99.90;;;3.06;95.09;99481.56;5227641;28;20222;-78
2021/12/19 03:25:35;;;;;;;45.57;25.63;;;2.10;99.90;;;3.08;95.57;99480.09;5216947;28;20236;-79
2021/12/19 03:28:10;;;;;;;45.77;25.33;;;2.10;99.90;;;3.13;94.94;99483.16;5212043;28;20215;-80
2021/12/19 03:30:47;;;;;;;42.13;23.70;;;2.10;99.90;;;3.11;95.01;99480.44;5220633;28;20194;-78
2021/12/19 03:33:20;;;;;;;43.73;24.47;;;2.10;99.90;;;3.11;94.76;99465.28;5209262;28;20487;-78
2021/12/19 03:35:53;;;;;;;45.43;24.03;;;2.00;99.90;;;3.13;94.44;99468.00;5210802;28;20203;-79
2021/12/19 03:38:26;;;;;;;42.87;23.90;;;2.00;99.90;;;3.05;94.74;99467.13;5219727;28;20560;-79
2021/12/19 03:41:13;;;;;;;44.70;24.70;;;2.00;99.90;;;3.05;95.34;99464.59;5224938;28;20214;-80
2021/12/19 03:43:47;;;;;;;44.60;24.47;;;2.10;99.90;;;3.03;95.57;99452.53;5210676;28;20696;-78
2021/12/19 03:46:20;;;;;;;41.40;24.50;;;2.00;99.90;;;3.12;94.46;99457.00;5206852;28;20242;-78
2021/12/19 03:48:53;;;;;;;45.40;25.03;;;2.00;99.90;;;3.09;94.75;99453.22;5220814;28;20210;-80
2021/12/19 03:51:26;;;;;;;42.17;24.50;;;2.00;99.90;;;3.07;94.70;99452.16;5214803;28;20206;-79
2021/12/19 03:53:59;;;;;;;42.57;24.13;;;2.00;99.90;;;3.05;95.14;99453.59;5219194;28;20220;-79
2021/12/19 03:56:35;;;;;;;42.77;23.97;;;2.00;99.90;;;3.02;95.08;99454.16;5215437;28;21544;-80
2021/12/19 03:59:08;;;;;;;42.93;24.23;;;2.00;99.90;;;3.24;93.90;99456.56;5211921;28;20292;-80
2021/12/19 04:01:46;;;;;;;40.37;24.83;;;2.00;99.90;;;3.09;94.31;99449.09;5217861;28;20196;-79
2021/12/19 04:04:19;;;;;;;43.50;25.47;;;2.00;99.90;;;3.03;94.66;99448.38;5212085;28;20227;-80
2021/12/19 04:06:54;;;;;;;39.53;23.40;;;2.00;99.90;;;3.02;94.83;99446.59;5207770;28;20215;-79
2021/12/19 04:09:27;;;;;;;40.33;23.17;;;2.00;99.90;;;3.09;94.85;99446.56;5212370;28;20202;-78
2021/12/19 04:12:02;;;;;;;43.33;23.57;;;2.00;99.90;;;3.16;93.89;99443.06;5220339;28;20196;-78
2021/12/19 04:14:35;;;;;;;40.10;22.47;;;2.00;99.90;;;3.06;93.96;99433.59;5211611;28;20228;-78
2021/12/19 04:17:08;;;;;;;40.03;23.03;;;2.00;99.90;;;3.01;94.58;99427.13;5207688;28;20203;-80
2021/12/19 04:19:42;;;;;;;42.90;23.43;;;2.00;99.90;;;3.02;94.31;99423.84;5216813;28;20215;-79
2021/12/19 04:22:15;;;;;;;45.27;24.77;;;1.90;99.90;;;3.06;93.47;99409.94;5219031;28;20202;-79
2021/12/19 04:24:48;;;;;;;44.87;23.83;;;1.90;99.90;;;3.00;94.44;99410.16;5211523;28;20235;-79
2021/12/19 04:27:23;;;;;;;40.93;22.97;;;2.00;99.90;;;2.94;94.61;99420.47;5211495;28;20222;-78
2021/12/19 04:29:56;;;;;;;48.27;24.43;;;1.90;99.90;;;2.91;94.67;99409.13;5213571;28;20686;-81
2021/12/19 04:32:34;;;;;;;40.90;23.10;;;1.90;99.90;;;2.94;94.83;99402.78;5213631;28;20199;-79
2021/12/19 04:35:08;;;;;;;40.67;22.27;;;1.90;99.90;;;2.98;94.13;99406.56;5228990;28;20617;-80
2021/12/19 04:40:40;;;;;;;44.13;22.73;;;1.90;99.90;;;2.93;94.81;99412.72;5212299;28;20197;-80
2021/12/19 04:52:10;;;;;;;48.03;23.93;;;2.00;99.90;;;2.82;96.11;99424.16;5197561;28;20191;-79
2021/12/19 04:55:01;;;;;;;49.80;24.67;;;2.00;99.90;;;2.91;95.03;99421.75;5216817;28;20258;-79
2021/12/19 04:57:41;;;;;;;47.23;24.47;;;1.90;99.90;;;2.91;95.59;99414.19;5209125;28;20277;-80
2021/12/19 05:00:19;;;;;;;50.87;25.20;;;1.90;99.90;;;2.88;96.15;99411.31;5223051;28;20197;-79
2021/12/19 05:02:57;;;;;;;52.30;25.47;;;1.90;99.90;;;2.93;95.44;99412.72;5209004;28;20201;-79
2021/12/19 05:14:16;;;;;;;48.13;25.47;;;2.00;99.90;;;2.94;95.23;99402.78;5238344;28;20205;-64
2021/12/19 05:16:50;;;;;;;46.43;24.17;;;1.90;99.90;;;3.00;94.88;99409.25;5230481;28;20668;-62
2021/12/19 05:19:29;;;;;;;47.77;23.97;;;1.90;99.90;;;2.92;95.54;99405.91;5220816;28;20326;-63
2021/12/19 05:22:02;;;;;;;47.67;24.67;;;2.00;99.90;;;2.88;95.71;99399.59;5217657;28;20204;-62
2021/12/19 05:24:59;;;;;;;50.17;25.63;;;2.00;99.90;;;2.86;96.21;99395.09;5223093;28;20201;-59
2021/12/19 05:27:33;;;;;;;47.13;24.67;;;1.90;99.90;;;2.93;95.70;99388.38;5221286;28;20229;-59
2021/12/19 05:30:08;;;;;;;49.20;24.77;;;1.90;99.90;;;2.90;95.49;99388.03;5222882;28;20197;-63
2021/12/19 05:32:42;;;;;;;46.57;24.50;;;1.90;99.90;;;2.83;96.40;99389.69;5223895;28;20208;-62
2021/12/19 05:35:23;;;;;;;46.37;25.17;;;1.90;99.90;;;2.89;96.30;99387.84;5222365;28;20216;-57
2021/12/19 05:46:30;;;;;;;46.93;24.20;;;1.90;99.90;;;2.87;96.21;99385.19;5221286;28;20659;-60
2021/12/19 05:49:04;;;;;;;44.10;23.40;;;1.90;99.90;;;2.85;96.51;99383.19;5223863;28;20196;-60
2021/12/19 05:51:39;;;;;;;42.80;22.23;;;1.90;99.90;;;2.89;95.96;99395.44;5221487;28;20684;-61
2021/12/19 05:54:12;;;;;;;43.03;22.53;;;1.90;99.90;;;2.89;96.65;99390.38;5208860;28;20205;-63
2021/12/19 05:56:48;;;;;;;46.77;24.80;;;1.90;99.90;;;2.91;96.94;99389.81;5220435;28;20221;-60
2021/12/19 05:59:21;;;;;;;41.67;23.10;;;1.90;99.90;;;2.91;96.82;99388.94;5209560;28;20201;-60
2021/12/19 06:01:54;;;;;;;44.43;23.23;;;2.00;99.90;;;2.91;96.92;99389.81;5210284;28;20208;-60
2021/12/19 06:04:27;;;;;;;45.63;23.67;;;2.00;99.90;;;2.89;96.99;99387.84;5212611;28;20204;-61
2021/12/19 06:07:01;;;;;;;42.07;23.47;;;1.90;99.90;;;2.87;96.92;99385.19;5212134;28;20218;-60
2021/12/19 06:09:34;;;;;;;44.63;23.97;;;1.90;99.90;;;2.90;97.11;99388.03;5204366;28;20217;-61
2021/12/19 06:12:09;;;;;;;44.30;24.43;;;1.90;99.90;;;2.89;96.51;99385.31;5214506;28;20196;-61
2021/12/19 06:14:42;;;;;;;45.00;23.90;;;1.90;99.90;;;2.87;97.57;99384.28;5213982;28;20224;-62
2021/12/19 06:17:15;;;;;;;48.97;23.47;;;1.90;99.90;;;2.85;97.18;99379.03;5222588;28;20193;-60
2021/12/19 06:19:48;;;;;;;42.50;22.10;;;1.90;99.90;;;2.89;97.19;99370.19;5204327;28;20285;-62
2021/12/19 06:22:21;;;;;;;40.50;22.03;;;1.90;99.90;;;2.95;97.60;99363.31;5202936;28;20654;-62
2021/12/19 06:24:54;;;;;;;42.50;21.13;;;1.90;99.90;;;2.85;97.47;99368.06;5204066;28;20234;-62
2021/12/19 06:27:29;;;;;;;39.57;21.47;;;2.00;99.90;;;2.91;97.22;99374.66;5198774;28;20220;-60
2021/12/19 06:30:02;;;;;;;40.23;21.40;;;2.00;99.90;;;2.80;97.36;99359.06;5197296;28;20205;-62
2021/12/19 06:32:35;;;;;;;40.67;21.83;;;1.90;99.90;;;2.93;97.78;99359.72;5197342;28;20203;-63
2021/12/19 06:35:17;;;;;;;35.77;21.33;;;2.00;99.90;;;2.87;97.06;99347.31;5203407;28;20585;-60
2021/12/19 06:37:51;;;;;;;37.20;20.10;;;2.00;99.90;;;2.99;97.03;99347.75;5202951;28;20687;-59
2021/12/19 06:40:27;;;;;;;33.63;19.87;;;1.90;99.90;;;2.96;96.83;99339.84;5209060;28;20585;-59
2021/12/19 06:43:02;;;;;;;36.53;19.40;;;1.90;99.90;;;2.84;97.23;99331.81;5204962;28;20200;-61
2021/12/19 06:45:35;;;;;;;33.30;18.67;;;2.00;99.90;;;2.89;97.36;99347.44;5210522;28;20650;-60
2021/12/19 06:48:09;;;;;;;33.57;19.20;;;2.00;99.90;;;2.87;98.25;99346.41;5210631;28;20667;-61
2021/12/19 06:50:42;;;;;;;31.53;18.10;;;2.00;99.90;;;2.88;98.25;99349.09;5205288;28;20594;-59
2021/12/19 06:53:15;;;;;;;33.33;18.60;;;2.00;99.90;;;2.83;98.37;99349.31;5208041;28;20578;-61
2021/12/19 06:55:48;;;;;;;34.80;19.33;;;2.00;99.90;;;2.85;98.39;99352.91;5203917;28;20215;-63
2021/12/19 06:58:23;;;;;;;32.90;18.87;;;2.00;99.90;;;2.88;98.79;99350.72;5206704;28;20202;-60
2021/12/19 07:00:56;;;;;;;31.07;18.10;;;2.00;99.90;;;2.90;98.47;99359.38;5205255;28;20200;-64
2021/12/19 07:03:29;;;;;;;29.47;18.33;;;2.00;99.90;;;2.83;98.10;99359.41;5204059;28;20206;-62
2021/12/19 07:06:03;;;;;;;31.77;17.73;;;2.00;99.90;;;2.90;98.79;99360.25;5207023;28;20304;-62
2021/12/19 07:08:36;;;;;;;33.57;18.93;;;2.00;99.90;;;2.93;98.41;99362.22;5201602;28;20218;-61
2021/12/19 07:11:09;;;;;;;30.83;18.77;;;2.10;99.90;;;2.91;98.53;99358.63;5190005;28;20196;-61
2021/12/19 07:13:43;;;;;;;30.00;17.90;;;2.10;99.90;;;3.04;97.85;99351.69;5196126;28;20204;-62
2021/12/19 07:16:16;;;;;;;33.97;20.13;;;2.10;99.90;;;3.03;97.46;99359.97;5205385;28;20228;-62
2021/12/19 07:18:49;;;;;;;33.57;19.03;;;2.10;99.90;;;3.07;97.71;99351.13;5205174;28;20182;-58
2021/12/19 07:21:24;;;;;;;31.20;18.93;;;2.20;99.90;;;3.02;97.77;99347.19;5193626;28;20205;-61
2021/12/19 07:23:57;;;;;;;27.93;17.13;;;2.20;99.90;;;3.02;98.29;99332.94;5203447;28;20646;-60
2021/12/19 07:26:31;;;;;;;28.67;17.50;;;2.20;99.90;;;3.10;98.12;99348.94;5204829;28;20219;-60
2021/12/19 07:29:05;;;;;;;31.53;18.50;;;2.10;99.90;;;3.04;97.79;99346.63;5203648;28;20227;-61
2021/12/19 07:31:39;;;;;;;30.87;17.27;;;2.20;99.90;;;3.03;98.37;99354.91;5204708;28;20204;-63
2021/12/19 07:34:12;;;;;;;30.07;17.47;;;2.20;99.90;;;3.11;97.77;99354.13;5194889;28;20202;-60
2021/12/19 07:36:50;;;;;;;25.93;16.07;;;2.10;99.90;;;3.07;97.57;99346.06;5204619;28;20751;-60
2021/12/19 07:39:27;;;;;;;27.70;17.03;;;2.10;99.90;;;3.14;97.13;99346.91;5205021;28;20559;-59
2021/12/19 07:42:01;;;;;;;27.03;16.77;;;2.10;99.90;;;3.15;96.63;99353.78;5198128;28;20193;-62
2021/12/19 07:44:36;;;;;;;28.50;17.77;;;2.10;99.90;;;3.13;96.65;99342.59;5202915;28;20206;-59
2021/12/19 07:47:10;;;;;;;28.77;16.60;;;2.10;99.90;;;3.16;96.91;99337.88;5204861;28;20191;-62
2021/12/19 07:49:43;;;;;;;26.97;15.87;;;2.20;99.90;;;3.20;96.45;99333.16;5205099;28;20221;-59
2021/12/19 07:52:17;;;;;;;28.57;15.97;;;2.10;99.90;;;3.15;97.12;99335.19;5200844;28;20301;-61
2021/12/19 07:54:50;;;;;;;29.40;16.70;;;2.10;99.90;;;3.23;96.68;99329.31;5208450;28;20219;-59
2021/12/19 07:57:23;;;;;;;26.30;15.80;;;2.20;99.90;;;3.25;95.87;99324.44;5210889;28;20214;-61
2021/12/19 07:59:57;;;;;;;24.00;15.70;;;2.10;99.90;;;3.14;96.50;99336.78;5198024;28;20203;-61
2021/12/19 08:02:30;;;;;;;23.30;15.37;;;2.10;99.90;;;3.07;97.12;99338.50;5205169;28;20203;-58
2021/12/19 08:05:04;;;;;;;27.03;15.87;;;2.10;99.90;;;3.08;97.14;99337.75;5196211;28;20220;-61
2021/12/19 08:07:38;;;;;;;28.70;16.97;;;2.10;99.90;;;3.09;97.16;99331.97;5204144;28;20205;-61
2021/12/19 08:11:39;;;;;;;24.37;14.93;;;2.20;99.90;;;3.08;97.59;99327.66;5204052;28;20204;-61
2021/12/19 08:13:08;;;;;;;25.60;14.70;;;2.20;99.90;;;3.06;97.89;99329.09;5197778;28;20198;-62
2021/12/19 08:15:42;;;;;;;22.20;14.50;;;2.20;99.90;;;3.08;97.76;99322.59;5195315;28;20221;-59
2021/12/19 08:18:15;;;;;;;26.27;15.30;;;2.20;99.90;;;3.21;96.50;99320.69;5202562;28;20201;-59
2021/12/19 08:20:49;;;;;;;22.57;13.93;;;2.20;99.90;;;3.10;97.25;99322.03;5203582;28;20480;-56
2021/12/19 08:23:22;;;;;;;22.60;14.30;;;2.20;99.90;;;3.08;97.89;99315.91;5201268;28;20207;-58
2021/12/19 08:25:55;;;;;;;19.43;14.17;;;2.20;99.90;;;3.18;97.07;99310.25;5195906;28;20219;-58
2021/12/19 08:28:28;;;;;;;22.07;13.53;;;2.20;99.90;;;3.17;97.37;99309.34;5201818;28;20229;-58
2021/12/19 08:31:02;;;;;;;23.03;13.83;;;2.20;99.90;;;3.17;97.02;99309.34;5200638;28;20218;-61
2021/12/19 08:33:35;;;;;;;20.07;13.57;;;2.20;99.90;;;3.16;97.34;99299.09;5208502;28;20569;-60
2021/12/19 08:36:09;;;;;;;22.57;13.73;;;2.30;99.90;;;3.19;97.27;99314.56;5192321;28;20222;-61
2021/12/19 08:38:42;;;;;;;25.67;16.13;;;2.30;99.90;;;3.26;97.04;99304.41;5199090;28;20208;-58
2021/12/19 08:41:16;;;;;;;22.83;13.80;;;2.30;99.90;;;3.30;95.70;99291.38;5203081;28;20716;-58
2021/12/19 08:43:49;;;;;;;21.37;13.20;;;2.30;99.90;;;3.22;96.60;99306.44;5205866;28;20658;-57
2021/12/19 08:46:24;;;;;;;19.53;13.63;;;2.20;99.90;;;3.22;96.65;99304.81;5224614;28;20237;-59
2021/12/19 08:48:57;;;;;;;19.20;12.60;;;2.30;99.90;;;3.19;96.33;99309.53;5202512;28;20220;-60
2021/12/19 08:51:31;;;;;;;19.97;13.10;;;2.20;99.90;;;3.22;95.71;99306.44;5205978;28;20206;-58
2021/12/19 08:54:05;;;;;;;18.07;12.50;;;2.20;99.90;;;3.09;96.20;99312.69;5202315;28;20200;-55
2021/12/19 08:56:38;;;;;;;18.03;12.57;;;2.20;99.90;;;3.15;95.98;99310.81;5196725;28;20725;-56
2021/12/19 08:59:11;;;;;;;17.90;12.40;;;2.20;99.90;;;3.19;96.39;99307.00;5211118;28;20190;-58
2021/12/19 09:01:47;;;;;;;22.60;13.00;;;2.20;99.90;;;3.18;95.85;99305.22;5201094;28;20612;-53
2021/12/19 09:04:20;;;;;;;20.53;13.17;;;2.20;99.90;;;3.16;95.60;99305.03;5214116;28;20198;-60
2021/12/19 09:06:56;;;;;;;20.10;13.83;;;2.20;99.90;;;3.16;96.07;99302.50;5209147;28;20216;-59
2021/12/19 09:09:29;;;;;;;18.37;13.13;;;2.20;99.90;;;3.05;96.07;99313.06;5200192;28;20778;-57
2021/12/19 09:12:02;;;;;;;19.00;13.10;;;2.20;99.90;;;3.05;95.91;99317.22;5205947;28;20208;-56
2021/12/19 09:14:36;;;;;;;19.00;13.27;;;2.20;99.90;;;3.29;95.21;99313.94;5199182;28;20229;-63
2021/12/19 09:17:10;;;;;;;18.33;13.70;;;2.20;99.90;;;3.30;94.88;99296.44;5194134;28;20727;-62
2021/12/19 09:19:44;;;;;;;18.43;13.33;;;2.20;99.90;;;3.28;95.50;99312.16;5196680;28;20195;-63
2021/12/19 09:22:18;;;;;;;20.60;12.93;;;2.20;99.90;;;3.28;94.74;99302.03;5194275;28;20204;-61
2021/12/19 09:24:51;;;;;;;21.70;13.93;;;2.20;99.90;;;3.23;95.02;99293.94;5194420;28;20229;-62
2021/12/19 09:27:24;;;;;;;19.40;12.47;;;2.20;99.90;;;3.24;96.06;99300.81;5203342;28;20208;-62
2021/12/19 09:29:57;;;;;;;19.03;12.27;;;2.40;99.90;;;3.28;95.13;99304.56;5200204;28;20223;-62
2021/12/19 09:32:31;;;;;;;18.33;12.50;;;2.40;99.90;;;3.22;95.49;99307.31;5199521;28;20202;-62
2021/12/19 09:35:05;;;;;;;17.70;13.33;;;2.40;99.90;;;3.28;95.59;99286.88;5188353;28;20224;-62
2021/12/19 09:37:38;;;;;;;17.63;12.10;;;2.40;99.90;;;3.29;95.22;99284.53;5201404;28;20211;-63
2021/12/19 09:40:19;;;;;;;19.23;12.57;;;2.30;99.90;;;3.25;95.19;99286.56;5190725;28;20245;-61
2021/12/19 09:43:01;;;;;;;19.00;13.70;;;2.30;99.90;;;3.27;95.15;99282.56;5200335;28;20214;-61
2021/12/19 09:45:34;;;;;;;18.03;12.87;;;2.30;99.90;;;3.28;94.64;99277.66;5185088;28;20616;-60
2021/12/19 09:48:09;;;;;;;17.13;12.20;;;2.30;99.90;;;3.28;94.95;99279.31;5196516;28;20202;-60
2021/12/19 09:50:42;;;;;;;16.10;11.40;;;2.30;99.90;;;3.37;93.68;99267.66;5186595;28;20229;-61
2021/12/19 09:53:16;;;;;;;16.63;11.73;;;2.30;99.90;;;3.26;94.50;99268.13;5191368;28;20200;-61
2021/12/19 09:55:49;;;;;;;18.37;11.90;;;2.40;99.90;;;3.19;95.23;99261.53;5198644;28;20221;-58
2021/12/19 09:58:22;;;;;;;16.77;11.47;;;2.30;99.90;;;3.34;94.27;99263.16;5207024;28;20198;-59
2021/12/19 10:00:55;;;;;;;15.87;10.80;;;2.30;99.90;;;3.32;94.27;99258.66;5198088;28;20206;-59
2021/12/19 10:03:30;;;;;;;14.27;10.90;;;2.30;99.90;;;3.25;95.02;99257.13;5204387;28;20201;-62
2021/12/19 10:06:19;;;;;;;15.70;10.50;;;2.30;99.90;;;3.17;95.14;99246.19;5206253;28;20218;-60
2021/12/19 10:09:11;;;;;;;14.60;10.63;;;2.40;99.90;;;3.32;94.61;99243.50;5208074;28;20224;-56
2021/12/19 10:11:57;;;;;;;14.03;10.00;;;2.50;99.90;;;3.30;94.66;99239.94;5206180;28;20227;-62
2021/12/19 10:14:33;;;;;;;14.80;10.20;;;2.50;99.90;;;3.41;94.07;99236.06;5206949;28;20207;-59
2021/12/19 10:17:08;;;;;;;15.37;10.97;;;2.40;99.90;;;3.35;94.29;99233.75;5210463;28;20208;-64
2021/12/19 10:19:46;;;;;;;15.87;10.57;;;2.30;99.90;;;3.36;95.12;99230.50;5209306;28;20211;-60
2021/12/19 10:22:28;;;;;;;15.37;10.93;;;2.40;99.90;;;3.36;94.84;99227.97;5202997;28;20551;-60
2021/12/19 10:25:17;;;;;;;13.43;9.47;;;2.40;99.90;;;3.41;95.01;99219.25;5201450;28;20214;-61
2021/12/19 10:27:54;;;;;;;12.17;10.13;;;2.50;99.90;;;3.47;94.73;99213.97;5203363;28;20218;-61
2021/12/19 10:30:30;;;;;;;65.87;42.97;;;2.50;99.90;;;3.46;94.02;99213.03;5206264;28;20210;-61
2021/12/19 10:33:06;;;;;;;16.17;12.13;;;2.50;99.90;;;3.51;93.74;99206.84;5202982;28;20650;-60
2021/12/19 10:35:47;;;;;;;12.07;9.77;;;2.50;99.90;;;3.53;93.41;99210.44;5197217;28;20221;-58
2021/12/19 10:38:22;;;;;;;12.83;9.83;;;2.60;99.90;;;3.61;93.21;99204.56;5206216;28;20283;-61
2021/12/19 10:40:58;;;;;;;12.47;9.83;;;2.50;99.90;;;3.59;93.76;99200.06;5206227;28;20195;-61
2021/12/19 10:43:33;;;;;;;10.50;7.90;;;2.60;99.90;;;3.63;93.65;99197.13;5193908;28;20203;-61
2021/12/19 10:46:07;;;;;;;10.60;9.10;;;2.60;99.90;;;3.55;94.29;99193.81;5193474;28;20215;-60
2021/12/19 10:48:41;;;;;;;11.03;8.63;;;2.70;99.90;;;3.65;93.68;99179.59;5195542;28;20575;-59
2021/12/19 10:51:19;;;;;;;9.17;7.87;;;2.60;99.90;;;3.69;92.74;99176.66;5200094;28;20227;-62
2021/12/19 10:53:54;;;;;;;9.47;8.30;;;2.70;99.90;;;3.66;92.74;99172.16;5201516;28;20199;-61
2021/12/19 10:56:31;;;;;;;10.13;8.27;;;2.60;99.90;;;3.64;92.83;99168.59;5202037;28;20592;-61
2021/12/19 10:59:07;;;;;;;9.70;8.07;;;2.60;99.90;;;3.61;93.38;99168.28;5205392;28;20293;-62
2021/12/19 11:01:44;;;;;;;9.80;7.80;;;2.70;99.90;;;3.61;93.77;99163.22;5204070;28;20200;-60
2021/12/19 11:04:19;;;;;;;12.37;11.17;;;2.60;99.90;;;3.65;93.83;99161.91;5200752;28;20642;-60
2021/12/19 11:06:57;;;;;;;10.07;8.67;;;2.60;99.90;;;3.65;93.77;99159.38;5205550;28;20696;-60
2021/12/19 11:09:34;;;;;;;10.97;9.87;;;2.70;99.90;;;3.70;93.87;99150.66;5196006;28;20691;-61
2021/12/19 11:12:10;;;;;;;11.73;8.70;;;2.70;99.90;;;3.72;93.84;99147.56;5192356;28;20197;-61
2021/12/19 11:14:47;;;;;;;11.27;9.50;;;2.70;99.90;;;3.69;94.29;99146.31;5200390;28;20224;-60
2021/12/19 11:17:23;;;;;;;13.40;11.70;;;2.80;99.90;;;3.73;93.79;99134.16;5203703;28;20198;-59
2021/12/19 11:19:59;;;;;;;11.47;10.27;;;2.80;99.90;;;3.74;93.63;99135.94;5205346;28;20196;-56
2021/12/19 11:22:33;;;;;;;11.43;10.20;;;2.80;99.90;;;3.78;93.67;99122.91;5205380;28;20202;-59
2021/12/19 11:25:07;;;;;;;10.80;8.60;;;2.80;99.90;;;3.81;93.17;99129.91;5204696;28;20229;-60
2021/12/19 11:27:40;;;;;;;10.80;9.10;;;2.80;99.90;;;3.91;92.76;99121.63;5202041;28;20583;-58
2021/12/19 11:30:17;;;;;;;10.17;8.53;;;2.80;99.90;;;3.90;92.84;99118.22;5200886;28;20220;-58
2021/12/19 11:33:09;;;;;;;9.57;8.57;;;2.80;99.90;;;3.94;92.62;99105.13;5205417;28;20676;-59
2021/12/19 11:35:47;;;;;;;9.07;8.13;;;2.80;99.90;;;3.84;93.06;99105.81;5205181;28;20231;-58
2021/12/19 11:38:24;;;;;;;8.67;7.77;;;2.90;99.90;;;3.93;92.70;99104.97;5207645;28;20228;-61